EDGS METAR and TAF | Updated Today

EDGS METAR

Siegerland Airport

Observation time: 8 min. ago

EDGS 292050Z AUTO 18002KT 9999 // NCD 07/03 Q1006

Need help? Read our tutorial on how to read METARs or read the parsed version below.

Siegerland Airport (EDGS) METAR

  • Weather conditions on Thu, 29 Sep 2022 20:50:00 +0000 (8 min. ago):
  • Present conditions: Dry
  • Clouds: Nil cloud detected
  • Visibility: Greater than 10 km
  • Wind: 180 degrees at 2 knots
  • Temperature: 7 celsius
  • Dew point: 3 celsius
  • Pressure: 1006 millibars
  • Remarks: None


Useful to know...

EDGS TAF

Siegerland Airport

TAF EDGS 291700Z 2918/3003 06005KT CAVOK BECMG 2918/2920 VRB02KT
Observation time: 3:58 hr. ago
Need help? Read our tutorial on how to read TAFs or read the parsed version below.

Parsed version of TAF for Siegerland Airport (EDGS)

  • From 29 September at 18:00 UTC, to day 30 of the month at 03:00 UTC
  • Visibility: Greater than 10 km
  • Wind: 60 degrees at 5
  • Expected to arise soon, from 29 September at 18:00 UTC, to day 29 of the month at 20:00 UTC
  • Wind: Variable at 2